Time;durP1;ratioP1;P1;durP2;ratioP2;P2;SDS_P1;SDS_P2;PMS_P1;PMS_P2;Temp;Humidity;BMP_temperature;BMP_pressure;BME280_temperature;BME280_humidity;BME280_pressure;Samples;Min_cycle;Max_cycle;Signal;HPM_P1;HPM_P2
2022/01/10 08:07:28;;;;;;;6.03;4.30;;;12.40;61.10;;;8.07;73.61;99248.63;5070947;28;21112;-77
2022/01/10 08:09:54;;;;;;;5.55;4.30;;;11.70;61.20;;;6.75;85.56;99255.06;5049220;28;20187;-74
2022/01/10 08:12:20;;;;;;;6.43;4.53;;;10.40;63.30;;;6.02;95.21;99263.56;5050209;28;20679;-75
2022/01/10 08:14:48;;;;;;;8.40;5.30;;;9.10;68.10;;;5.50;100.00;99247.66;5065512;28;20286;-76
2022/01/10 08:17:13;;;;;;;6.13;4.32;;;8.10;71.80;;;5.13;100.00;99251.34;5050075;28;20219;-76
2022/01/10 08:19:39;;;;;;;4.25;3.65;;;7.30;75.00;;;5.05;100.00;99271.34;5050589;28;20610;-76
2022/01/10 08:22:07;;;;;;;5.38;3.58;;;6.70;77.90;;;4.88;100.00;99265.38;5050526;28;20191;-75
2022/01/10 08:24:33;;;;;;;6.28;4.05;;;6.30;80.50;;;4.75;100.00;99258.41;5048724;28;20540;-73
2022/01/10 08:26:59;;;;;;;5.78;3.75;;;6.00;82.30;;;4.75;100.00;99286.53;5015787;28;20267;-73
2022/01/10 08:29:25;;;;;;;6.95;3.83;;;5.80;83.90;;;4.70;100.00;99281.63;5065303;28;20657;-71
2022/01/10 08:31:51;;;;;;;5.32;3.72;;;5.60;85.40;;;4.69;100.00;99281.72;5048469;28;20672;-72
2022/01/10 08:34:17;;;;;;;5.90;4.07;;;5.50;86.20;;;4.69;100.00;99290.22;5048410;28;20663;-79
2022/01/10 08:36:43;;;;;;;12.75;5.32;;;5.40;87.10;;;4.43;100.00;99254.91;5050566;28;20211;-77
2022/01/10 08:39:09;;;;;;;8.55;5.13;;;5.40;87.80;;;4.71;100.00;99287.56;5032228;28;20203;-65
2022/01/10 08:41:36;;;;;;;7.20;4.55;;;5.40;88.20;;;4.64;100.00;99293.88;5048472;28;20214;-76
2022/01/10 08:44:03;;;;;;;4.75;3.78;;;5.30;88.50;;;4.57;100.00;99296.75;5065411;28;20188;-79
2022/01/10 08:46:29;;;;;;;4.95;4.03;;;5.30;89.00;;;4.38;100.00;99267.06;5049420;28;20234;-79
2022/01/10 08:48:55;;;;;;;6.10;4.75;;;5.20;89.20;;;4.64;100.00;99304.09;5049738;28;20649;-74
2022/01/10 08:51:21;;;;;;;4.78;3.95;;;5.20;89.70;;;4.44;100.00;99261.69;5048224;28;20187;-78
2022/01/10 08:53:47;;;;;;;5.60;4.32;;;5.20;90.10;;;4.66;100.00;99302.31;5048310;28;20640;-75
2022/01/10 08:56:13;;;;;;;4.90;3.85;;;5.20;90.20;;;4.69;100.00;99308.13;5047910;28;20542;-73
2022/01/10 08:58:39;;;;;;;5.88;4.03;;;5.30;90.50;;;4.70;100.00;99298.69;5049584;28;20194;-72
2022/01/10 09:01:06;;;;;;;5.10;3.67;;;5.30;90.60;;;4.50;100.00;99267.31;5049385;28;20561;-74
2022/01/10 09:03:33;;;;;;;5.35;3.40;;;5.20;90.30;;;4.64;100.00;99317.72;5031640;28;20214;-71
2022/01/10 09:05:59;;;;;;;4.40;3.28;;;5.40;90.60;;;4.59;100.00;99283.91;5031365;28;20233;-71
2022/01/10 09:08:32;;;;;;;5.50;3.80;;;5.40;90.50;;;4.97;100.00;99333.94;5064457;28;20179;-70
2022/01/10 09:11:02;;;;;;;9.02;5.72;;;5.40;90.70;;;4.92;100.00;99328.25;5047987;28;20222;-71
2022/01/10 09:13:28;;;;;;;6.97;4.82;;;5.50;90.80;;;4.90;100.00;99319.81;5016122;28;20522;-71
2022/01/10 09:15:54;;;;;;;5.80;3.83;;;5.50;90.80;;;5.04;100.00;99357.47;5031493;28;20192;-72
2022/01/10 09:18:20;;;;;;;4.53;3.97;;;5.60;90.80;;;4.88;100.00;99352.28;5070380;28;20680;-75
2022/01/10 09:20:46;;;;;;;4.53;3.83;;;5.60;90.70;;;4.40;100.00;99290.81;5034563;28;20192;-76
2022/01/10 09:23:12;;;;;;;4.93;3.70;;;5.60;90.60;;;4.93;100.00;99358.03;5001615;28;20553;-64
2022/01/10 09:25:38;;;;;;;6.30;4.35;;;5.60;90.50;;;4.98;100.00;99360.34;5018046;28;20215;-68
2022/01/10 09:28:04;;;;;;;5.18;3.65;;;5.50;90.60;;;5.05;100.00;99368.50;5034199;28;20223;-71
2022/01/10 09:30:30;;;;;;;5.32;4.38;;;5.60;90.70;;;5.11;100.00;99369.03;5033993;28;20231;-70
2022/01/10 09:32:56;;;;;;;6.20;4.85;;;5.70;90.60;;;5.15;100.00;99382.50;5035615;28;20212;-71
2022/01/10 09:35:23;;;;;;;4.30;3.90;;;5.70;90.50;;;5.10;100.00;99375.06;5035245;28;20188;-73
2022/01/10 09:37:49;;;;;;;4.43;3.25;;;5.70;90.50;;;5.08;100.00;99368.38;5067492;28;20338;-74
2022/01/10 09:40:15;;;;;;;5.32;3.75;;;5.70;90.50;;;5.09;100.00;99393.03;5001721;28;20192;-69
2022/01/10 09:42:41;;;;;;;6.85;4.97;;;5.70;90.40;;;4.84;100.00;99340.56;5035566;28;20215;-74
2022/01/10 09:45:08;;;;;;;7.15;5.30;;;5.70;90.40;;;5.16;100.00;99397.78;5035491;28;20637;-74
2022/01/10 09:47:34;;;;;;;6.68;4.45;;;5.80;90.30;;;5.20;100.00;99401.00;5033976;28;20273;-73
2022/01/10 09:50:00;;;;;;;5.50;4.43;;;5.80;90.30;;;4.85;100.00;99360.13;5033860;28;20762;-72
2022/01/10 09:52:26;;;;;;;7.45;4.70;;;5.80;90.30;;;4.91;100.00;99375.16;5034748;28;20628;-70
2022/01/10 09:54:53;;;;;;;4.65;3.85;;;5.80;90.20;;;5.16;100.00;99425.06;5017644;28;20185;-75
2022/01/10 09:57:21;;;;;;;4.43;3.85;;;5.80;90.20;;;5.11;100.00;99422.72;5033727;28;20254;-74
2022/01/10 09:59:47;;;;;;;3.97;3.58;;;5.80;90.20;;;5.12;100.00;99426.94;5067344;28;20188;-75
2022/01/10 10:02:17;;;;;;;4.00;3.60;;;5.70;90.10;;;4.91;100.00;99377.72;5033844;28;20512;-72
2022/01/10 10:04:43;;;;;;;4.05;3.33;;;5.80;90.20;;;5.04;100.00;99385.59;5017259;28;20615;-74
2022/01/10 10:07:09;;;;;;;4.07;3.67;;;5.80;90.20;;;5.21;100.00;99403.47;5049871;28;20790;-71
2022/01/10 10:09:36;;;;;;;4.95;3.90;;;5.90;90.20;;;5.24;100.00;99392.28;5000777;28;20200;-73
2022/01/10 10:12:03;;;;;;;4.57;3.80;;;6.00;90.30;;;5.55;100.00;99425.63;5033806;28;20237;-71
2022/01/10 10:14:29;;;;;;;5.32;4.05;;;6.10;90.30;;;5.30;100.00;99392.78;5017219;28;20188;-71
2022/01/10 10:16:56;;;;;;;4.68;4.18;;;6.20;90.30;;;5.48;100.00;99441.38;5034970;28;20219;-74
2022/01/10 10:19:27;;;;;;;5.10;3.75;;;6.20;90.10;;;5.64;100.00;99437.97;5017149;28;20200;-76
2022/01/10 10:21:57;;;;;;;5.72;3.72;;;6.30;89.60;;;5.60;100.00;99423.66;5066906;28;20207;-71
2022/01/10 10:24:24;;;;;;;6.90;4.00;;;6.30;89.20;;;5.90;100.00;99444.31;5033369;28;20191;-72
2022/01/10 10:26:50;;;;;;;4.80;3.80;;;6.40;89.10;;;5.70;100.00;99411.22;5017314;28;20290;-76
2022/01/10 10:29:18;;;;;;;3.65;2.83;;;6.50;88.80;;;5.93;100.00;99433.09;5032645;28;20695;-68
2022/01/10 10:31:52;;;;;;;4.75;3.45;;;6.60;88.60;;;5.87;100.00;99412.88;5033740;28;20196;-71
2022/01/10 10:34:29;;;;;;;4.20;3.33;;;6.70;88.40;;;6.09;100.00;99451.88;5032841;28;20241;-75
2022/01/10 10:37:09;;;;;;;5.97;3.70;;;6.80;88.00;;;5.83;100.00;99434.47;5018294;28;20547;-75
2022/01/10 10:39:40;;;;;;;5.75;4.32;;;6.80;87.50;;;6.03;100.00;99450.44;5017035;28;20437;-76
2022/01/10 10:42:12;;;;;;;5.50;3.85;;;6.80;87.10;;;5.71;100.00;99408.56;5033322;28;20547;-77
2022/01/10 10:44:39;;;;;;;7.70;3.65;;;6.70;87.00;;;5.48;100.00;99385.09;5032864;28;20196;-76
2022/01/10 10:47:05;;;;;;;4.38;3.40;;;6.70;87.00;;;5.89;100.00;99446.97;5033225;28;20652;-75
2022/01/10 10:49:36;;;;;;;3.80;3.00;;;6.70;86.90;;;5.89;100.00;99452.91;5016465;28;20207;-79
2022/01/10 10:52:05;;;;;;;6.00;3.88;;;6.70;86.50;;;5.80;100.00;99424.38;5065459;28;20189;-75
2022/01/10 10:54:32;;;;;;;5.03;3.53;;;6.70;86.10;;;6.25;100.00;99464.69;5033853;28;20763;-73
2022/01/10 10:56:59;;;;;;;4.88;3.50;;;6.80;86.40;;;6.34;100.00;99451.41;5032855;28;20184;-69
2022/01/10 10:59:29;;;;;;;4.07;3.30;;;7.00;87.10;;;6.52;100.00;99447.00;5016337;28;20197;-74
2022/01/10 11:01:56;;;;;;;5.68;4.38;;;7.20;86.80;;;6.88;100.00;99462.91;5016853;28;20192;-73
2022/01/10 11:04:22;;;;;;;5.50;3.80;;;7.50;86.70;;;7.04;100.00;99470.59;5032349;28;20548;-69
2022/01/10 11:06:48;;;;;;;6.57;4.20;;;7.70;86.00;;;7.05;100.00;99472.25;5015759;28;20228;-68
2022/01/10 11:09:14;;;;;;;4.32;3.90;;;7.80;85.00;;;7.02;100.00;99477.53;5032689;28;20185;-71
2022/01/10 11:11:44;;;;;;;7.63;4.53;;;8.00;84.20;;;6.88;100.00;99475.75;5015850;28;20192;-78
2022/01/10 11:14:13;;;;;;;7.65;5.28;;;8.00;82.70;;;6.65;100.00;99423.19;5016590;28;20268;-73
2022/01/10 11:16:40;;;;;;;8.02;4.75;;;8.00;82.30;;;6.84;100.00;99462.25;5000270;28;20214;-75
2022/01/10 11:19:22;;;;;;;5.80;4.18;;;8.00;82.50;;;6.84;100.00;99454.56;5016379;28;20196;-76
2022/01/10 11:22:09;;;;;;;6.45;3.70;;;8.00;82.80;;;6.70;100.00;99462.19;5033554;28;20556;-72
2022/01/10 11:25:03;;;;;;;5.30;4.07;;;7.90;82.60;;;7.01;100.00;99481.81;5032353;28;20196;-68
2022/01/10 11:27:34;;;;;;;4.50;3.35;;;7.90;82.80;;;7.10;100.00;99495.88;5033082;28;20216;-68
2022/01/10 11:30:09;;;;;;;5.22;3.88;;;8.00;83.00;;;7.07;100.00;99506.34;5016306;28;20187;-68
2022/01/10 11:33:04;;;;;;;4.72;3.63;;;8.00;81.80;;;7.04;100.00;99516.75;5016658;28;20192;-73
2022/01/10 11:35:33;;;;;;;5.00;3.72;;;8.00;81.50;;;7.18;100.00;99506.53;5032966;28;20196;-68
2022/01/10 11:37:59;;;;;;;6.32;4.88;;;8.10;81.90;;;7.34;100.00;99514.19;4999919;28;20215;-68
2022/01/10 11:40:25;;;;;;;5.30;4.30;;;8.20;82.10;;;7.11;100.00;99470.16;5015326;28;20238;-68
2022/01/10 11:42:58;;;;;;;5.65;4.07;;;8.30;81.80;;;7.28;100.00;99523.06;5015595;28;20287;-69
2022/01/10 11:45:25;;;;;;;6.43;3.60;;;8.20;81.20;;;7.20;100.00;99518.38;5015280;28;20172;-68
2022/01/10 11:48:07;;;;;;;4.80;3.55;;;8.20;80.50;;;7.09;100.00;99525.00;5031942;28;20227;-68
2022/01/10 11:50:32;;;;;;;5.03;3.35;;;8.10;80.00;;;6.79;100.00;99517.28;5032791;28;20275;-69
2022/01/10 11:53:02;;;;;;;5.45;3.65;;;7.90;80.10;;;6.66;100.00;99534.25;5033015;28;20198;-69
2022/01/10 11:55:32;;;;;;;4.72;3.47;;;7.70;80.60;;;6.68;100.00;99529.84;5031484;28;20191;-68
2022/01/10 11:58:18;;;;;;;3.97;3.35;;;7.60;81.30;;;6.60;100.00;99534.56;5032036;28;20211;-69
2022/01/10 12:00:45;;;;;;;3.83;3.38;;;7.50;82.00;;;6.49;100.00;99533.41;5015837;28;20587;-73
2022/01/10 12:03:10;;;;;;;5.35;3.92;;;7.40;82.50;;;6.38;100.00;99528.03;4999324;28;20184;-71
2022/01/10 12:05:37;;;;;;;4.55;3.55;;;7.30;83.00;;;6.56;100.00;99538.22;5014973;28;20692;-72
2022/01/10 12:08:04;;;;;;;5.60;4.25;;;7.30;83.10;;;6.68;100.00;99548.63;5031741;28;20188;-70
2022/01/10 12:10:31;;;;;;;4.20;3.80;;;7.30;83.10;;;6.29;100.00;99502.03;5015341;28;20202;-70
2022/01/10 12:13:11;;;;;;;4.78;3.90;;;7.30;83.40;;;6.45;100.00;99556.72;5048499;28;20245;-70
2022/01/10 12:15:37;;;;;;;5.50;4.20;;;7.20;84.00;;;6.50;100.00;99565.00;4999565;28;20214;-73
2022/01/10 12:18:03;;;;;;;4.80;4.05;;;7.20;84.50;;;6.37;100.00;99561.41;5032919;28;20196;-76
2022/01/10 12:20:29;;;;;;;5.00;3.75;;;7.10;84.90;;;6.29;100.00;99572.06;5031471;28;20669;-73
2022/01/10 12:22:56;;;;;;;4.65;3.55;;;7.10;85.30;;;6.44;100.00;99568.69;5031605;28;20593;-75
2022/01/10 12:25:22;;;;;;;5.28;4.07;;;7.20;85.50;;;6.05;100.00;99528.03;5015084;28;20192;-75
2022/01/10 12:27:49;;;;;;;4.38;3.28;;;7.10;85.70;;;6.23;100.00;99559.56;5048278;28;20649;-78
2022/01/10 12:30:16;;;;;;;4.00;3.33;;;7.00;86.00;;;6.16;100.00;99558.22;5015354;28;20189;-76
2022/01/10 12:32:42;;;;;;;4.18;3.38;;;7.00;86.90;;;5.93;100.00;99532.97;5031399;28;20184;-71
2022/01/10 12:35:09;;;;;;;4.60;3.47;;;7.00;86.30;;;6.21;100.00;99584.44;4998867;28;20226;-72
2022/01/10 12:37:36;;;;;;;5.60;4.07;;;6.90;86.50;;;6.20;100.00;99592.19;5031422;28;20199;-70
2022/01/10 12:40:04;;;;;;;4.97;3.40;;;6.90;86.80;;;6.08;100.00;99550.94;5015222;28;20579;-72
2022/01/10 12:42:30;;;;;;;5.70;3.92;;;6.90;87.10;;;6.34;100.00;99605.16;5031075;28;20193;-73
2022/01/10 12:44:56;;;;;;;6.25;4.15;;;6.90;86.60;;;5.86;100.00;99552.06;5064815;28;20294;-69
2022/01/10 12:47:24;;;;;;;6.10;3.75;;;6.90;86.40;;;6.25;100.00;99585.94;5014865;28;20216;-74
2022/01/10 12:49:51;;;;;;;4.22;3.25;;;6.90;86.40;;;6.51;100.00;99617.09;5031487;28;20645;-80
2022/01/10 12:52:17;;;;;;;5.93;3.85;;;7.00;86.40;;;6.39;100.00;99611.69;5033166;28;20271;-73
2022/01/10 12:54:43;;;;;;;4.68;3.78;;;7.00;86.50;;;6.49;100.00;99623.13;5067962;28;20711;-71
2022/01/10 12:57:09;;;;;;;7.03;4.60;;;6.90;86.50;;;6.38;100.00;99619.44;5034927;28;20192;-71
2022/01/10 12:59:37;;;;;;;4.30;3.83;;;6.80;86.60;;;6.15;100.00;99591.59;5035801;28;20201;-72
2022/01/10 13:02:06;;;;;;;8.15;4.75;;;6.60;86.90;;;6.18;100.00;99588.91;5002480;28;20196;-71
2022/01/10 13:04:36;;;;;;;5.47;3.88;;;6.60;87.40;;;6.18;100.00;99615.31;5018413;28;20548;-73
2022/01/10 13:07:13;;;;;;;6.53;4.15;;;6.70;87.80;;;6.45;100.00;99624.16;5034620;28;20239;-72
2022/01/10 13:09:40;;;;;;;4.43;3.53;;;6.70;88.60;;;6.10;100.00;99571.34;5018616;28;20241;-68
2022/01/10 13:12:25;;;;;;;4.60;3.40;;;6.70;87.50;;;6.31;100.00;99639.44;5018620;28;20283;-71
2022/01/10 13:14:51;;;;;;;5.32;4.15;;;6.70;87.30;;;6.29;100.00;99631.00;5036199;28;20196;-76
2022/01/10 13:17:24;;;;;;;6.85;4.47;;;6.70;87.50;;;6.25;100.00;99633.78;5034662;28;20197;-70
2022/01/10 13:20:03;;;;;;;6.28;4.18;;;6.70;87.80;;;6.21;100.00;99628.00;5018078;28;20672;-79
2022/01/10 13:22:36;;;;;;;8.13;5.25;;;6.70;87.60;;;6.23;100.00;99646.69;5018654;28;20250;-72
2022/01/10 13:25:04;;;;;;;6.30;4.30;;;6.70;87.50;;;6.17;100.00;99626.50;5018257;28;20586;-72
2022/01/10 13:27:34;;;;;;;5.22;4.40;;;6.80;87.90;;;6.24;100.00;99653.47;5018232;28;20266;-72
2022/01/10 13:30:26;;;;;;;6.82;4.93;;;6.80;87.70;;;5.73;100.00;99600.50;5035567;28;20692;-73
2022/01/10 13:32:57;;;;;;;5.40;4.03;;;6.80;87.40;;;6.01;100.00;99613.59;5018292;28;20634;-71
2022/01/10 13:35:23;;;;;;;5.53;4.28;;;6.90;87.30;;;6.17;100.00;99670.06;5017964;28;20200;-71
2022/01/10 13:38:07;;;;;;;4.97;3.78;;;6.90;87.10;;;6.14;100.00;99675.31;5034178;28;20184;-73
2022/01/10 13:40:46;;;;;;;5.47;4.18;;;6.80;86.90;;;6.22;100.00;99680.88;5035464;28;20179;-75
2022/01/10 13:43:18;;;;;;;6.10;4.15;;;6.80;86.70;;;6.06;100.00;99644.97;5051211;28;20238;-69
2022/01/10 13:45:54;;;;;;;5.65;3.88;;;6.90;87.10;;;6.35;100.00;99694.72;5034904;28;20298;-67
2022/01/10 13:48:37;;;;;;;6.40;4.70;;;6.90;87.20;;;6.34;100.00;99697.41;5035876;28;20184;-69
2022/01/10 13:51:20;;;;;;;4.65;4.05;;;6.90;87.10;;;6.29;100.00;99697.59;5034171;28;20638;-70
2022/01/10 13:53:47;;;;;;;5.15;3.90;;;6.90;87.10;;;6.01;100.00;99692.19;5034019;28;20196;-70
2022/01/10 13:56:22;;;;;;;7.22;4.00;;;6.90;86.90;;;6.18;100.00;99699.06;5017695;28;20199;-70
2022/01/10 13:58:53;;;;;;;5.80;4.20;;;6.80;86.60;;;6.34;100.00;99695.63;5050509;28;20270;-70
2022/01/10 14:01:41;;;;;;;5.88;4.18;;;6.80;86.40;;;6.08;100.00;99679.00;5018349;28;20193;-71
2022/01/10 14:04:27;;;;;;;4.70;3.80;;;6.80;86.70;;;6.20;100.00;99712.59;5034956;28;20200;-78
2022/01/10 14:06:53;;;;;;;7.50;4.90;;;6.70;87.00;;;6.07;100.00;99714.94;5035113;28;20235;-77
2022/01/10 14:09:22;;;;;;;9.77;5.07;;;6.70;87.50;;;5.94;100.00;99683.97;5050756;28;20188;-74
2022/01/10 14:11:48;;;;;;;6.53;4.78;;;6.70;87.60;;;5.99;100.00;99722.16;5034666;28;20191;-72
2022/01/10 14:14:14;;;;;;;7.22;4.43;;;6.70;87.70;;;6.09;100.00;99725.94;5066980;28;20242;-74
2022/01/10 14:16:44;;;;;;;8.15;4.70;;;6.60;87.70;;;5.77;100.00;99691.59;5033605;28;20606;-75
2022/01/10 14:19:10;;;;;;;5.82;4.38;;;6.40;87.40;;;5.84;100.00;99717.75;5033510;28;20204;-74
2022/01/10 14:21:37;;;;;;;7.65;5.15;;;6.30;88.40;;;5.78;100.00;99711.16;5017099;28;20191;-69
2022/01/10 14:24:03;;;;;;;5.60;4.35;;;6.30;88.90;;;5.65;100.00;99728.84;5033682;28;20544;-71
2022/01/10 14:26:29;;;;;;;7.18;4.82;;;6.20;89.30;;;5.61;100.00;99735.00;5034633;28;20216;-73
2022/01/10 14:28:55;;;;;;;7.13;5.22;;;6.20;89.70;;;5.77;100.00;99713.78;5034876;28;20211;-74
2022/01/10 14:31:20;;;;;;;5.82;4.20;;;6.20;89.80;;;5.68;100.00;99731.25;5033226;28;20192;-75
2022/01/10 14:33:47;;;;;;;6.70;4.90;;;6.10;89.20;;;5.76;100.00;99746.28;5016839;28;20223;-77
2022/01/10 14:36:14;;;;;;;6.47;4.85;;;6.00;89.60;;;5.60;100.00;99733.34;5066784;28;20196;-72
2022/01/10 14:38:41;;;;;;;4.82;3.85;;;6.00;89.70;;;5.34;100.00;99714.09;5032755;28;20545;-76
2022/01/10 14:41:07;;;;;;;6.93;4.82;;;5.80;90.00;;;5.34;100.00;99723.50;5034526;28;20195;-73
2022/01/10 14:43:33;;;;;;;6.22;4.22;;;5.80;90.20;;;5.29;100.00;99718.56;5032987;28;20193;-70
2022/01/10 14:45:59;;;;;;;5.00;4.03;;;5.80;90.20;;;5.30;100.00;99729.63;5049630;28;20219;-73
2022/01/10 14:48:25;;;;;;;6.80;5.20;;;5.80;90.30;;;5.37;100.00;99759.16;5034002;28;20192;-75
2022/01/10 14:50:51;;;;;;;9.45;5.93;;;5.80;90.50;;;5.17;100.00;99728.53;5033959;28;20276;-71
2022/01/10 14:53:17;;;;;;;11.63;6.07;;;5.70;90.50;;;5.36;100.00;99758.31;5049502;28;20197;-72
2022/01/10 14:55:47;;;;;;;8.88;5.20;;;5.70;90.60;;;5.10;100.00;99720.31;5016446;28;20271;-70
2022/01/10 14:58:13;;;;;;;7.50;5.43;;;5.80;90.80;;;5.46;100.00;99770.69;5016830;28;20641;-70
2022/01/10 15:00:44;;;;;;;12.32;5.50;;;5.80;90.80;;;5.46;100.00;99766.41;5032483;28;20184;-76
2022/01/10 15:03:13;;;;;;;7.95;4.97;;;5.90;90.80;;;5.41;100.00;99741.94;5017071;28;20526;-74
2022/01/10 15:05:40;;;;;;;6.75;5.10;;;5.90;90.50;;;5.56;100.00;99767.66;5033518;28;20240;-74
2022/01/10 15:08:06;;;;;;;7.03;5.10;;;6.00;90.30;;;5.54;100.00;99782.25;5032524;28;20716;-74
2022/01/10 15:10:32;;;;;;;8.23;4.90;;;5.90;90.40;;;5.21;100.00;99746.22;5065807;28;20207;-74
2022/01/10 15:12:59;;;;;;;6.25;4.88;;;5.90;90.30;;;5.40;100.00;99781.22;5032534;28;20227;-73
2022/01/10 15:15:25;;;;;;;7.68;4.75;;;5.90;90.30;;;5.21;100.00;99765.84;5031885;28;20200;-73
2022/01/10 15:17:51;;;;;;;8.18;4.63;;;5.80;90.20;;;5.28;100.00;99795.38;4999481;28;20656;-74
2022/01/10 15:20:17;;;;;;;6.47;4.22;;;5.70;90.30;;;5.26;100.00;99805.69;5032557;28;20224;-74
2022/01/10 15:22:43;;;;;;;5.82;4.70;;;5.70;90.50;;;5.24;100.00;99811.78;5065543;28;20196;-74
2022/01/10 15:25:09;;;;;;;6.20;4.80;;;5.70;90.60;;;4.85;100.00;99755.50;5016117;28;20607;-69
2022/01/10 15:27:35;;;;;;;6.90;4.65;;;5.70;90.80;;;5.17;100.00;99813.78;5033215;28;20216;-77
2022/01/10 15:30:02;;;;;;;6.82;4.72;;;5.60;90.90;;;4.90;100.00;99772.31;5015971;28;20632;-80
2022/01/10 15:32:27;;;;;;;6.07;4.40;;;5.60;90.90;;;5.13;100.00;99803.72;5033245;28;20234;-71
2022/01/10 15:34:53;;;;;;;5.95;4.40;;;5.60;90.80;;;5.21;100.00;99822.94;5032054;28;20180;-70
2022/01/10 15:37:19;;;;;;;7.15;4.40;;;5.60;90.60;;;5.30;100.00;99825.13;5033346;28;20403;-69
2022/01/10 15:39:45;;;;;;;4.75;4.25;;;5.70;90.60;;;5.10;100.00;99826.88;5033058;28;20191;-75
2022/01/10 15:42:14;;;;;;;6.38;4.90;;;5.60;90.40;;;4.65;100.00;99771.69;5065133;28;20185;-70
2022/01/10 15:44:44;;;;;;;6.88;5.22;;;5.50;90.50;;;5.02;100.00;99841.72;5031682;28;20193;-78
2022/01/10 15:47:11;;;;;;;6.32;4.68;;;5.40;90.70;;;5.00;100.00;99846.91;5015827;28;20241;-72
2022/01/10 15:49:37;;;;;;;5.97;4.22;;;5.40;90.90;;;4.92;100.00;99851.50;5031883;28;20275;-74
2022/01/10 15:52:03;;;;;;;5.55;4.35;;;5.40;91.00;;;4.79;100.00;99835.81;5033500;28;20196;-74
2022/01/10 15:54:29;;;;;;;5.75;4.95;;;5.30;91.00;;;4.86;100.00;99859.41;5065200;28;20184;-71
2022/01/10 15:56:55;;;;;;;6.28;5.10;;;5.30;91.10;;;4.83;100.00;99854.44;5032872;28;20195;-70
2022/01/10 15:59:21;;;;;;;7.60;4.75;;;5.30;91.20;;;4.85;100.00;99866.28;5031711;28;20679;-71
2022/01/10 16:01:47;;;;;;;8.07;5.72;;;5.30;91.30;;;4.79;100.00;99866.50;5031555;28;20188;-72
2022/01/10 16:04:13;;;;;;;12.00;7.15;;;5.30;91.30;;;4.72;100.00;99856.59;5015688;28;20197;-73
2022/01/10 16:06:39;;;;;;;12.18;6.78;;;5.20;91.40;;;4.77;100.00;99870.88;5031123;28;20335;-67
2022/01/10 16:09:05;;;;;;;10.32;5.90;;;5.20;91.50;;;4.70;100.00;99873.69;5032901;28;20271;-76
2022/01/10 16:11:31;;;;;;;5.25;4.07;;;5.10;91.50;;;4.72;100.00;99877.88;5032861;28;20195;-74
2022/01/10 16:13:57;;;;;;;7.85;4.97;;;5.20;91.70;;;4.49;100.00;99844.75;5032391;28;20219;-67
2022/01/10 16:16:27;;;;;;;7.00;5.20;;;5.20;91.70;;;4.65;100.00;99889.25;4998988;28;20330;-66
2022/01/10 16:18:53;;;;;;;7.63;5.32;;;5.10;91.70;;;4.62;100.00;99888.50;5031647;28;20534;-65
2022/01/10 16:21:19;;;;;;;7.97;6.05;;;5.10;91.80;;;4.43;100.00;99861.16;5014907;28;20196;-66
2022/01/10 16:23:45;;;;;;;9.27;6.38;;;5.00;91.90;;;4.37;100.00;99863.94;5064725;28;20215;-66
2022/01/10 16:26:11;;;;;;;8.40;6.10;;;5.00;91.90;;;4.56;100.00;99910.03;5031421;28;20695;-65
2022/01/10 16:28:40;;;;;;;11.07;6.93;;;5.00;92.00;;;4.54;100.00;99912.66;5018136;28;20275;-65
2022/01/10 16:31:07;;;;;;;8.30;5.82;;;4.90;92.00;;;4.24;100.00;99867.03;5036732;28;20196;-65
2022/01/10 16:33:33;;;;;;;8.63;6.15;;;4.90;92.10;;;4.47;100.00;99920.63;5035545;28;20286;-64
2022/01/10 16:36:02;;;;;;;9.13;5.70;;;4.90;92.20;;;4.47;100.00;99925.72;5035360;28;20237;-67
2022/01/10 16:38:27;;;;;;;10.10;6.28;;;4.80;92.10;;;3.93;100.00;99854.63;5035710;28;20195;-70
2022/01/10 16:40:54;;;;;;;9.02;5.85;;;4.90;92.20;;;4.32;100.00;99936.53;5035180;28;20193;-65
2022/01/10 16:43:22;;;;;;;9.45;6.28;;;4.80;92.20;;;4.14;100.00;99887.81;5036340;28;20203;-66
2022/01/10 16:45:50;;;;;;;6.63;4.65;;;4.80;92.30;;;4.40;100.00;99940.47;5068342;28;20208;-66
2022/01/10 16:48:16;;;;;;;9.45;5.28;;;4.80;92.40;;;4.34;100.00;99935.59;5035339;28;20281;-66
2022/01/10 16:50:42;;;;;;;6.38;5.03;;;4.70;92.40;;;4.40;100.00;99952.41;5034898;28;20192;-66
2022/01/10 16:53:08;;;;;;;8.85;5.78;;;4.70;92.40;;;4.34;100.00;99961.13;5036247;28;20217;-65
2022/01/10 16:55:38;;;;;;;8.43;6.13;;;4.70;92.50;;;4.29;100.00;99957.91;5036216;28;20326;-64
2022/01/10 16:58:06;;;;;;;8.32;5.80;;;4.70;92.50;;;4.21;100.00;99960.75;5019388;28;20239;-63
2022/01/10 17:00:33;;;;;;;7.05;5.30;;;4.70;92.50;;;4.13;100.00;99970.41;5017718;28;21025;-66
2022/01/10 17:02:59;;;;;;;6.80;4.78;;;4.70;92.40;;;3.94;100.00;99943.91;5035831;28;20192;-66
2022/01/10 17:05:25;;;;;;;7.15;5.28;;;4.70;92.30;;;4.11;100.00;99979.88;5018301;28;20228;-64
2022/01/10 17:07:51;;;;;;;6.88;4.55;;;4.60;92.30;;;4.21;100.00;99988.84;5018471;28;20177;-64
2022/01/10 17:10:21;;;;;;;6.60;4.72;;;4.60;92.40;;;4.25;100.00;99984.47;5035331;28;20246;-65
2022/01/10 17:12:53;;;;;;;10.10;5.82;;;4.70;92.00;;;4.23;100.00;99993.91;5051052;28;20191;-65
2022/01/10 17:15:20;;;;;;;6.93;5.57;;;4.60;91.70;;;4.15;100.00;99991.63;5066880;28;20526;-64
2022/01/10 17:17:46;;;;;;;4.97;3.60;;;4.50;91.60;;;3.98;100.00;99999.06;5067751;28;20183;-65
2022/01/10 17:20:12;;;;;;;5.35;3.78;;;4.40;91.70;;;3.93;100.00;99995.84;5018339;28;20608;-67
2022/01/10 17:22:39;;;;;;;6.88;3.92;;;4.30;91.80;;;3.67;100.00;99962.75;5035687;28;20184;-66
2022/01/10 17:25:10;;;;;;;5.78;4.88;;;4.20;91.90;;;3.57;100.00;99964.78;5034257;28;20184;-65
2022/01/10 17:27:40;;;;;;;5.57;3.22;;;4.20;92.10;;;3.84;100.00;100006.38;5018289;28;20227;-65
2022/01/10 17:30:07;;;;;;;4.30;3.47;;;4.20;92.20;;;3.56;100.00;99975.03;5018038;28;20181;-64
2022/01/10 17:32:34;;;;;;;5.60;4.30;;;4.30;92.10;;;3.65;100.00;100010.44;5035816;28;20271;-66
2022/01/10 17:35:00;;;;;;;4.78;3.78;;;4.20;91.90;;;3.59;100.00;100003.00;5033950;28;20192;-66
2022/01/10 17:37:26;;;;;;;4.63;3.60;;;4.10;91.80;;;3.62;100.00;100024.16;5034396;28;20192;-64
2022/01/10 17:39:59;;;;;;;6.35;4.38;;;4.00;91.90;;;3.47;100.00;99998.28;5066921;28;20199;-64
2022/01/10 17:42:28;;;;;;;4.28;3.47;;;4.00;92.00;;;3.52;100.00;100020.22;5035594;28;20181;-64
2022/01/10 17:44:54;;;;;;;5.97;3.85;;;3.90;92.10;;;3.13;100.00;99980.75;5034011;28;20192;-65
2022/01/10 17:47:26;;;;;;;6.45;4.05;;;3.90;92.20;;;3.44;100.00;100017.94;5050931;28;20211;-63
2022/01/10 17:50:00;;;;;;;7.53;4.55;;;3.80;92.30;;;3.55;100.00;100040.53;5034109;28;20195;-65
2022/01/10 17:52:34;;;;;;;5.88;4.60;;;3.80;92.40;;;3.40;100.00;100036.75;5035443;28;20184;-64
2022/01/10 17:55:11;;;;;;;5.15;3.80;;;3.80;92.50;;;3.36;100.00;100044.56;5034136;28;20172;-65
2022/01/10 17:57:37;;;;;;;7.43;4.78;;;3.80;92.50;;;3.27;100.00;100027.84;5019456;28;20211;-69
2022/01/10 18:00:07;;;;;;;7.63;4.68;;;3.70;92.40;;;3.42;100.00;100057.13;5033912;28;20196;-67
2022/01/10 18:02:35;;;;;;;7.85;5.22;;;3.70;92.40;;;3.33;100.00;100040.41;5033790;28;20629;-68
2022/01/10 18:05:02;;;;;;;8.82;6.03;;;3.70;92.50;;;3.30;100.00;100049.84;5017492;28;20208;-66
2022/01/10 18:07:28;;;;;;;7.07;5.68;;;3.70;92.50;;;3.21;100.00;100050.97;5033791;28;20555;-65
2022/01/10 18:09:54;;;;;;;9.73;5.78;;;3.70;92.50;;;3.31;100.00;100069.38;5033465;28;20195;-65
2022/01/10 18:12:19;;;;;;;7.25;5.72;;;3.70;92.60;;;3.24;100.00;100066.19;5034878;28;20196;-65
2022/01/10 18:14:45;;;;;;;7.55;5.80;;;3.70;92.70;;;3.38;100.00;100074.22;5000925;28;20193;-65
2022/01/10 18:17:11;;;;;;;8.57;5.63;;;3.70;92.70;;;3.46;100.00;100078.28;5033816;28;20183;-65
2022/01/10 18:19:38;;;;;;;10.38;6.03;;;3.70;92.80;;;3.31;100.00;100069.38;5034674;28;20191;-64
2022/01/10 18:22:05;;;;;;;9.60;6.05;;;3.70;92.90;;;3.38;100.00;100079.31;5035226;28;20185;-66
2022/01/10 18:24:32;;;;;;;11.68;7.50;;;3.70;92.90;;;3.43;100.00;100082.59;5034044;28;20184;-66
2022/01/10 18:26:59;;;;;;;11.77;8.23;;;3.70;92.80;;;3.38;100.00;100092.06;5016786;28;20671;-68
2022/01/10 18:29:27;;;;;;;14.85;8.75;;;3.70;92.90;;;3.13;100.00;100039.38;5033560;28;20203;-66
2022/01/10 18:31:54;;;;;;;15.32;8.40;;;3.70;92.90;;;3.32;100.00;100094.84;5049607;28;20191;-67
2022/01/10 18:34:21;;;;;;;16.35;11.10;;;3.70;92.80;;;3.30;100.00;100088.94;5031024;28;20418;-70
2022/01/10 18:36:47;;;;;;;16.55;10.75;;;3.70;92.80;;;2.92;100.00;100102.84;5033175;28;20203;-67